Alamo, California
Current Conditions -  °F | °C
As of 9:53 AM on Thursday 18 Dec 2014 (Local Time) from KCCR Reporting Station
Haze Haze  
Wind Chill: 12°   Ceiling: 800
Heat Index: 12°   Visibility: 3mi
Dew Point: 10°   Wind: 3mph
Humidity: 86%   Direction: 20°NNE
Pressure: 30.18"   Gusts: NA
Location:  37.85°N, 122.03°W
Report Text: KCCR 181753Z 02003KT 3SM BR OVC008 12/10 A3018 RMK AO2 RAE10 SLP207 P0001 60001 T01220100 10122 20106 53019
Loading
Personal Weather Stations






























Interactive Weather Map New forecast layout! Learn more

10-Day Weather Forecast

Advertisements
Track Severe Weather on mobile